sensor_id;sensor_type;location;lat;lon;timestamp;P1;durP1;ratioP1;P2;durP2;ratioP2
635;SDS011;302;50.206;8.196;2023-12-20T00:00:48;1.05;;;0.95;;
635;SDS011;302;50.206;8.196;2023-12-20T00:03:14;1.30;;;1.20;;
635;SDS011;302;50.206;8.196;2023-12-20T00:05:39;1.10;;;0.90;;
635;SDS011;302;50.206;8.196;2023-12-20T00:08:06;1.00;;;0.60;;
635;SDS011;302;50.206;8.196;2023-12-20T00:10:31;1.23;;;1.13;;
635;SDS011;302;50.206;8.196;2023-12-20T00:12:56;0.90;;;0.70;;
635;SDS011;302;50.206;8.196;2023-12-20T00:15:21;1.73;;;0.80;;
635;SDS011;302;50.206;8.196;2023-12-20T00:17:46;1.25;;;0.75;;
635;SDS011;302;50.206;8.196;2023-12-20T00:20:12;0.90;;;0.57;;
635;SDS011;302;50.206;8.196;2023-12-20T00:22:37;1.10;;;0.90;;
635;SDS011;302;50.206;8.196;2023-12-20T00:25:02;1.45;;;0.70;;
635;SDS011;302;50.206;8.196;2023-12-20T00:27:27;1.63;;;0.70;;
635;SDS011;302;50.206;8.196;2023-12-20T00:29:52;1.02;;;0.73;;
635;SDS011;302;50.206;8.196;2023-12-20T00:32:17;1.63;;;1.53;;
635;SDS011;302;50.206;8.196;2023-12-20T00:34:43;1.10;;;0.90;;
635;SDS011;302;50.206;8.196;2023-12-20T00:37:08;1.00;;;0.63;;
635;SDS011;302;50.206;8.196;2023-12-20T00:39:33;0.80;;;0.50;;
635;SDS011;302;50.206;8.196;2023-12-20T00:41:58;0.80;;;0.50;;
635;SDS011;302;50.206;8.196;2023-12-20T00:44:23;1.10;;;0.60;;
635;SDS011;302;50.206;8.196;2023-12-20T00:46:49;1.00;;;0.77;;
635;SDS011;302;50.206;8.196;2023-12-20T00:49:14;1.73;;;0.83;;
635;SDS011;302;50.206;8.196;2023-12-20T00:51:39;1.00;;;0.50;;
635;SDS011;302;50.206;8.196;2023-12-20T00:54:04;0.90;;;0.70;;
635;SDS011;302;50.206;8.196;2023-12-20T00:56:29;0.90;;;0.60;;
635;SDS011;302;50.206;8.196;2023-12-20T00:58:55;1.43;;;0.80;;
635;SDS011;302;50.206;8.196;2023-12-20T01:01:20;2.88;;;0.70;;
635;SDS011;302;50.206;8.196;2023-12-20T01:03:46;1.10;;;0.75;;
635;SDS011;302;50.206;8.196;2023-12-20T01:06:11;1.10;;;0.70;;
635;SDS011;302;50.206;8.196;2023-12-20T01:08:37;1.42;;;0.60;;
635;SDS011;302;50.206;8.196;2023-12-20T01:11:03;1.00;;;0.70;;
635;SDS011;302;50.206;8.196;2023-12-20T01:13:29;1.15;;;0.85;;
635;SDS011;302;50.206;8.196;2023-12-20T01:15:54;0.90;;;0.60;;
635;SDS011;302;50.206;8.196;2023-12-20T01:18:19;1.43;;;0.83;;
635;SDS011;302;50.206;8.196;2023-12-20T01:20:44;1.00;;;0.85;;
635;SDS011;302;50.206;8.196;2023-12-20T01:23:10;1.00;;;0.60;;
635;SDS011;302;50.206;8.196;2023-12-20T01:25:35;0.88;;;0.70;;
635;SDS011;302;50.206;8.196;2023-12-20T01:28:00;1.70;;;0.93;;
635;SDS011;302;50.206;8.196;2023-12-20T01:30:25;1.08;;;0.70;;
635;SDS011;302;50.206;8.196;2023-12-20T01:32:50;1.00;;;0.70;;
635;SDS011;302;50.206;8.196;2023-12-20T01:35:15;1.45;;;0.80;;
635;SDS011;302;50.206;8.196;2023-12-20T01:37:40;0.90;;;0.80;;
635;SDS011;302;50.206;8.196;2023-12-20T01:40:06;1.15;;;0.90;;
635;SDS011;302;50.206;8.196;2023-12-20T01:42:31;1.00;;;0.80;;
635;SDS011;302;50.206;8.196;2023-12-20T01:44:56;1.00;;;0.80;;
635;SDS011;302;50.206;8.196;2023-12-20T01:47:21;1.20;;;1.00;;
635;SDS011;302;50.206;8.196;2023-12-20T01:49:47;1.10;;;0.90;;
635;SDS011;302;50.206;8.196;2023-12-20T01:52:13;1.10;;;0.90;;
635;SDS011;302;50.206;8.196;2023-12-20T01:54:38;1.20;;;0.90;;
635;SDS011;302;50.206;8.196;2023-12-20T01:57:05;1.20;;;1.00;;
635;SDS011;302;50.206;8.196;2023-12-20T01:59:32;1.00;;;0.90;;
635;SDS011;302;50.206;8.196;2023-12-20T02:01:57;1.00;;;0.90;;
635;SDS011;302;50.206;8.196;2023-12-20T02:04:22;1.33;;;1.05;;
635;SDS011;302;50.206;8.196;2023-12-20T02:06:48;1.20;;;1.07;;
635;SDS011;302;50.206;8.196;2023-12-20T02:09:17;1.63;;;1.20;;
635;SDS011;302;50.206;8.196;2023-12-20T02:11:42;1.20;;;1.00;;
635;SDS011;302;50.206;8.196;2023-12-20T02:14:08;1.02;;;0.93;;
635;SDS011;302;50.206;8.196;2023-12-20T02:16:33;1.83;;;1.30;;
635;SDS011;302;50.206;8.196;2023-12-20T02:18:58;1.35;;;1.25;;
635;SDS011;302;50.206;8.196;2023-12-20T02:21:31;1.23;;;1.05;;
635;SDS011;302;50.206;8.196;2023-12-20T02:23:57;1.10;;;0.90;;
635;SDS011;302;50.206;8.196;2023-12-20T02:26:22;1.10;;;1.00;;
635;SDS011;302;50.206;8.196;2023-12-20T02:28:47;1.07;;;0.90;;
635;SDS011;302;50.206;8.196;2023-12-20T02:31:12;1.37;;;1.00;;
635;SDS011;302;50.206;8.196;2023-12-20T02:33:37;1.27;;;1.17;;
635;SDS011;302;50.206;8.196;2023-12-20T02:36:04;1.20;;;1.00;;
635;SDS011;302;50.206;8.196;2023-12-20T02:38:29;1.30;;;1.20;;
635;SDS011;302;50.206;8.196;2023-12-20T02:40:55;1.20;;;1.10;;
635;SDS011;302;50.206;8.196;2023-12-20T02:43:20;1.27;;;1.17;;
635;SDS011;302;50.206;8.196;2023-12-20T02:45:45;1.10;;;0.95;;
635;SDS011;302;50.206;8.196;2023-12-20T02:48:10;1.13;;;0.95;;
635;SDS011;302;50.206;8.196;2023-12-20T02:50:35;1.20;;;1.10;;
635;SDS011;302;50.206;8.196;2023-12-20T02:53:00;1.80;;;1.40;;
635;SDS011;302;50.206;8.196;2023-12-20T02:55:25;1.30;;;1.20;;
635;SDS011;302;50.206;8.196;2023-12-20T02:57:50;1.60;;;1.40;;
635;SDS011;302;50.206;8.196;2023-12-20T03:00:16;1.50;;;1.40;;
635;SDS011;302;50.206;8.196;2023-12-20T03:02:41;1.60;;;1.20;;
635;SDS011;302;50.206;8.196;2023-12-20T03:05:06;2.00;;;1.80;;
635;SDS011;302;50.206;8.196;2023-12-20T03:07:31;1.50;;;1.40;;
635;SDS011;302;50.206;8.196;2023-12-20T03:09:57;2.33;;;2.13;;
635;SDS011;302;50.206;8.196;2023-12-20T03:12:22;1.92;;;1.83;;
635;SDS011;302;50.206;8.196;2023-12-20T03:14:48;1.77;;;1.67;;
635;SDS011;302;50.206;8.196;2023-12-20T03:17:13;2.17;;;1.97;;
635;SDS011;302;50.206;8.196;2023-12-20T03:19:38;1.90;;;1.80;;
635;SDS011;302;50.206;8.196;2023-12-20T03:22:03;1.73;;;1.63;;
635;SDS011;302;50.206;8.196;2023-12-20T03:24:28;1.70;;;1.60;;
635;SDS011;302;50.206;8.196;2023-12-20T03:26:53;1.60;;;1.40;;
635;SDS011;302;50.206;8.196;2023-12-20T03:29:19;1.87;;;1.67;;
635;SDS011;302;50.206;8.196;2023-12-20T03:31:44;1.73;;;1.30;;
635;SDS011;302;50.206;8.196;2023-12-20T03:34:09;1.63;;;1.50;;
635;SDS011;302;50.206;8.196;2023-12-20T03:36:34;1.87;;;1.70;;
635;SDS011;302;50.206;8.196;2023-12-20T03:38:59;1.43;;;1.33;;
635;SDS011;302;50.206;8.196;2023-12-20T03:41:24;2.95;;;1.70;;
635;SDS011;302;50.206;8.196;2023-12-20T03:43:50;1.50;;;1.40;;
635;SDS011;302;50.206;8.196;2023-12-20T03:46:15;1.90;;;1.80;;
635;SDS011;302;50.206;8.196;2023-12-20T03:48:40;1.80;;;1.57;;
635;SDS011;302;50.206;8.196;2023-12-20T03:51:05;1.90;;;1.80;;
635;SDS011;302;50.206;8.196;2023-12-20T03:53:30;1.70;;;1.60;;
635;SDS011;302;50.206;8.196;2023-12-20T03:55:55;2.30;;;2.10;;
635;SDS011;302;50.206;8.196;2023-12-20T03:58:21;1.75;;;1.65;;
635;SDS011;302;50.206;8.196;2023-12-20T04:00:46;2.47;;;2.28;;
635;SDS011;302;50.206;8.196;2023-12-20T04:03:11;2.83;;;2.53;;
635;SDS011;302;50.206;8.196;2023-12-20T04:05:38;3.03;;;2.80;;
635;SDS011;302;50.206;8.196;2023-12-20T04:08:03;3.27;;;2.97;;
635;SDS011;302;50.206;8.196;2023-12-20T04:10:29;3.90;;;3.50;;
635;SDS011;302;50.206;8.196;2023-12-20T04:12:54;4.80;;;4.40;;
635;SDS011;302;50.206;8.196;2023-12-20T04:15:20;8.47;;;7.83;;
635;SDS011;302;50.206;8.196;2023-12-20T04:17:45;6.30;;;5.80;;
635;SDS011;302;50.206;8.196;2023-12-20T04:20:10;6.17;;;5.57;;
635;SDS011;302;50.206;8.196;2023-12-20T04:22:35;5.97;;;5.47;;
635;SDS011;302;50.206;8.196;2023-12-20T04:25:00;5.97;;;5.00;;
635;SDS011;302;50.206;8.196;2023-12-20T04:27:26;5.38;;;4.88;;
635;SDS011;302;50.206;8.196;2023-12-20T04:29:51;5.70;;;4.80;;
635;SDS011;302;50.206;8.196;2023-12-20T04:32:16;6.30;;;4.63;;
635;SDS011;302;50.206;8.196;2023-12-20T04:34:41;5.38;;;4.88;;
635;SDS011;302;50.206;8.196;2023-12-20T04:37:06;5.57;;;4.75;;
635;SDS011;302;50.206;8.196;2023-12-20T04:39:31;7.53;;;4.40;;
635;SDS011;302;50.206;8.196;2023-12-20T04:41:56;6.22;;;4.30;;
635;SDS011;302;50.206;8.196;2023-12-20T04:44:21;5.32;;;4.10;;
635;SDS011;302;50.206;8.196;2023-12-20T04:46:47;4.90;;;4.00;;
635;SDS011;302;50.206;8.196;2023-12-20T04:49:12;5.83;;;4.60;;
635;SDS011;302;50.206;8.196;2023-12-20T04:51:37;4.57;;;3.93;;
635;SDS011;302;50.206;8.196;2023-12-20T04:54:03;4.93;;;3.80;;
635;SDS011;302;50.206;8.196;2023-12-20T04:56:28;3.80;;;3.50;;
635;SDS011;302;50.206;8.196;2023-12-20T04:58:53;6.13;;;4.07;;
635;SDS011;302;50.206;8.196;2023-12-20T05:01:18;5.70;;;3.00;;
635;SDS011;302;50.206;8.196;2023-12-20T05:03:44;9.37;;;3.77;;
635;SDS011;302;50.206;8.196;2023-12-20T05:06:09;3.97;;;2.67;;
635;SDS011;302;50.206;8.196;2023-12-20T05:08:34;3.07;;;2.10;;
635;SDS011;302;50.206;8.196;2023-12-20T05:10:59;4.20;;;2.97;;
635;SDS011;302;50.206;8.196;2023-12-20T05:13:25;6.20;;;2.57;;
635;SDS011;302;50.206;8.196;2023-12-20T05:15:50;3.35;;;2.28;;
635;SDS011;302;50.206;8.196;2023-12-20T05:18:15;2.60;;;2.00;;
635;SDS011;302;50.206;8.196;2023-12-20T05:20:41;3.50;;;2.47;;
635;SDS011;302;50.206;8.196;2023-12-20T05:23:06;4.82;;;2.22;;
635;SDS011;302;50.206;8.196;2023-12-20T05:25:31;6.27;;;2.80;;
635;SDS011;302;50.206;8.196;2023-12-20T05:27:57;3.97;;;2.40;;
635;SDS011;302;50.206;8.196;2023-12-20T05:30:22;5.40;;;2.23;;
635;SDS011;302;50.206;8.196;2023-12-20T05:32:47;3.67;;;1.97;;
635;SDS011;302;50.206;8.196;2023-12-20T05:35:12;6.63;;;4.05;;
635;SDS011;302;50.206;8.196;2023-12-20T05:37:38;2.87;;;2.67;;
635;SDS011;302;50.206;8.196;2023-12-20T05:40:03;2.70;;;2.05;;
635;SDS011;302;50.206;8.196;2023-12-20T05:42:29;4.93;;;2.33;;
635;SDS011;302;50.206;8.196;2023-12-20T05:44:54;4.73;;;2.30;;
635;SDS011;302;50.206;8.196;2023-12-20T05:47:19;3.33;;;2.30;;
635;SDS011;302;50.206;8.196;2023-12-20T05:49:44;3.30;;;2.30;;
635;SDS011;302;50.206;8.196;2023-12-20T05:52:10;2.83;;;1.90;;
635;SDS011;302;50.206;8.196;2023-12-20T05:54:35;3.47;;;2.37;;
635;SDS011;302;50.206;8.196;2023-12-20T05:57:00;5.43;;;1.98;;
635;SDS011;302;50.206;8.196;2023-12-20T05:59:25;3.20;;;2.03;;
635;SDS011;302;50.206;8.196;2023-12-20T06:01:51;4.00;;;2.30;;
635;SDS011;302;50.206;8.196;2023-12-20T06:04:16;3.40;;;2.10;;
635;SDS011;302;50.206;8.196;2023-12-20T06:06:41;3.97;;;2.38;;
635;SDS011;302;50.206;8.196;2023-12-20T06:09:07;2.60;;;1.98;;
635;SDS011;302;50.206;8.196;2023-12-20T06:11:32;3.60;;;2.37;;
635;SDS011;302;50.206;8.196;2023-12-20T06:13:57;5.73;;;2.50;;
635;SDS011;302;50.206;8.196;2023-12-20T06:16:23;4.20;;;3.88;;
635;SDS011;302;50.206;8.196;2023-12-20T06:18:48;2.60;;;2.40;;
635;SDS011;302;50.206;8.196;2023-12-20T06:21:13;2.70;;;2.07;;
635;SDS011;302;50.206;8.196;2023-12-20T06:23:39;4.00;;;2.70;;
635;SDS011;302;50.206;8.196;2023-12-20T06:26:04;6.13;;;2.63;;
635;SDS011;302;50.206;8.196;2023-12-20T06:28:29;3.03;;;1.97;;
635;SDS011;302;50.206;8.196;2023-12-20T06:30:54;4.17;;;2.00;;
635;SDS011;302;50.206;8.196;2023-12-20T06:33:20;3.03;;;2.07;;
635;SDS011;302;50.206;8.196;2023-12-20T06:35:47;4.15;;;2.78;;
635;SDS011;302;50.206;8.196;2023-12-20T06:38:12;3.92;;;2.50;;
635;SDS011;302;50.206;8.196;2023-12-20T06:40:37;5.47;;;3.00;;
635;SDS011;302;50.206;8.196;2023-12-20T06:43:02;4.27;;;3.17;;
635;SDS011;302;50.206;8.196;2023-12-20T06:45:28;6.17;;;3.33;;
635;SDS011;302;50.206;8.196;2023-12-20T06:47:53;5.10;;;2.70;;
635;SDS011;302;50.206;8.196;2023-12-20T06:50:19;6.90;;;4.85;;
635;SDS011;302;50.206;8.196;2023-12-20T06:52:44;6.45;;;4.43;;
635;SDS011;302;50.206;8.196;2023-12-20T06:55:10;3.50;;;2.90;;
635;SDS011;302;50.206;8.196;2023-12-20T06:57:35;3.67;;;2.80;;
635;SDS011;302;50.206;8.196;2023-12-20T07:00:01;5.72;;;2.67;;
635;SDS011;302;50.206;8.196;2023-12-20T07:02:27;5.50;;;3.28;;
635;SDS011;302;50.206;8.196;2023-12-20T07:04:55;2.85;;;2.42;;
635;SDS011;302;50.206;8.196;2023-12-20T07:07:20;2.20;;;2.00;;
635;SDS011;302;50.206;8.196;2023-12-20T07:09:45;4.23;;;2.30;;
635;SDS011;302;50.206;8.196;2023-12-20T07:12:10;3.00;;;2.50;;
635;SDS011;302;50.206;8.196;2023-12-20T07:14:36;6.30;;;2.37;;
635;SDS011;302;50.206;8.196;2023-12-20T07:17:01;6.20;;;2.93;;
635;SDS011;302;50.206;8.196;2023-12-20T07:19:26;3.37;;;2.23;;
635;SDS011;302;50.206;8.196;2023-12-20T07:21:51;5.40;;;2.50;;
635;SDS011;302;50.206;8.196;2023-12-20T07:24:16;2.07;;;1.87;;
635;SDS011;302;50.206;8.196;2023-12-20T07:26:42;4.97;;;2.77;;
635;SDS011;302;50.206;8.196;2023-12-20T07:29:08;2.80;;;1.90;;
635;SDS011;302;50.206;8.196;2023-12-20T07:31:33;6.90;;;3.17;;
635;SDS011;302;50.206;8.196;2023-12-20T07:33:58;3.03;;;2.13;;
635;SDS011;302;50.206;8.196;2023-12-20T07:36:23;3.80;;;1.97;;
635;SDS011;302;50.206;8.196;2023-12-20T07:38:48;2.97;;;2.00;;
635;SDS011;302;50.206;8.196;2023-12-20T07:41:14;3.35;;;1.85;;
635;SDS011;302;50.206;8.196;2023-12-20T07:43:41;5.60;;;2.45;;
635;SDS011;302;50.206;8.196;2023-12-20T07:46:06;3.83;;;2.10;;
635;SDS011;302;50.206;8.196;2023-12-20T07:48:33;5.50;;;2.20;;
635;SDS011;302;50.206;8.196;2023-12-20T07:50:58;4.88;;;2.20;;
635;SDS011;302;50.206;8.196;2023-12-20T07:53:24;3.23;;;2.20;;
635;SDS011;302;50.206;8.196;2023-12-20T07:55:49;3.47;;;1.60;;
635;SDS011;302;50.206;8.196;2023-12-20T07:58:14;2.80;;;1.60;;
635;SDS011;302;50.206;8.196;2023-12-20T08:00:39;4.47;;;2.00;;
635;SDS011;302;50.206;8.196;2023-12-20T08:03:04;4.40;;;1.60;;
635;SDS011;302;50.206;8.196;2023-12-20T08:05:29;5.10;;;1.70;;
635;SDS011;302;50.206;8.196;2023-12-20T08:07:54;3.60;;;1.77;;
635;SDS011;302;50.206;8.196;2023-12-20T08:10:20;2.87;;;1.80;;
635;SDS011;302;50.206;8.196;2023-12-20T08:12:45;4.87;;;1.73;;
635;SDS011;302;50.206;8.196;2023-12-20T08:15:10;6.82;;;1.90;;
635;SDS011;302;50.206;8.196;2023-12-20T08:17:35;5.80;;;2.10;;
635;SDS011;302;50.206;8.196;2023-12-20T08:20:00;4.40;;;2.10;;
635;SDS011;302;50.206;8.196;2023-12-20T08:22:26;3.17;;;2.10;;
635;SDS011;302;50.206;8.196;2023-12-20T08:24:51;3.13;;;2.20;;
635;SDS011;302;50.206;8.196;2023-12-20T08:27:16;3.72;;;1.80;;
635;SDS011;302;50.206;8.196;2023-12-20T08:29:43;4.17;;;2.23;;
635;SDS011;302;50.206;8.196;2023-12-20T08:32:08;2.17;;;1.55;;
635;SDS011;302;50.206;8.196;2023-12-20T08:34:33;6.20;;;2.33;;
635;SDS011;302;50.206;8.196;2023-12-20T08:36:58;3.70;;;2.30;;
635;SDS011;302;50.206;8.196;2023-12-20T08:39:24;4.10;;;2.30;;
635;SDS011;302;50.206;8.196;2023-12-20T08:41:49;7.30;;;4.40;;
635;SDS011;302;50.206;8.196;2023-12-20T08:44:14;9.30;;;3.45;;
635;SDS011;302;50.206;8.196;2023-12-20T08:46:39;3.00;;;2.55;;
635;SDS011;302;50.206;8.196;2023-12-20T08:49:04;8.40;;;3.87;;
635;SDS011;302;50.206;8.196;2023-12-20T08:51:30;4.53;;;3.53;;
635;SDS011;302;50.206;8.196;2023-12-20T08:53:55;4.83;;;3.30;;
635;SDS011;302;50.206;8.196;2023-12-20T08:56:20;5.67;;;5.17;;
635;SDS011;302;50.206;8.196;2023-12-20T08:58:46;4.20;;;3.80;;
635;SDS011;302;50.206;8.196;2023-12-20T09:01:11;6.63;;;5.90;;
635;SDS011;302;50.206;8.196;2023-12-20T09:03:36;9.73;;;8.93;;
635;SDS011;302;50.206;8.196;2023-12-20T09:06:01;5.15;;;4.65;;
635;SDS011;302;50.206;8.196;2023-12-20T09:08:27;6.37;;;3.60;;
635;SDS011;302;50.206;8.196;2023-12-20T09:10:52;6.70;;;6.03;;
635;SDS011;302;50.206;8.196;2023-12-20T09:13:20;9.68;;;7.70;;
635;SDS011;302;50.206;8.196;2023-12-20T09:15:47;9.80;;;8.80;;
635;SDS011;302;50.206;8.196;2023-12-20T09:18:12;4.07;;;3.63;;
635;SDS011;302;50.206;8.196;2023-12-20T09:20:37;5.63;;;3.43;;
635;SDS011;302;50.206;8.196;2023-12-20T09:23:02;6.10;;;3.77;;
635;SDS011;302;50.206;8.196;2023-12-20T09:25:27;7.40;;;6.70;;
635;SDS011;302;50.206;8.196;2023-12-20T09:27:53;4.50;;;3.30;;
635;SDS011;302;50.206;8.196;2023-12-20T09:30:18;16.90;;;11.17;;
635;SDS011;302;50.206;8.196;2023-12-20T09:32:43;17.50;;;11.43;;
635;SDS011;302;50.206;8.196;2023-12-20T09:35:09;9.57;;;5.77;;
635;SDS011;302;50.206;8.196;2023-12-20T09:37:34;5.93;;;2.77;;
635;SDS011;302;50.206;8.196;2023-12-20T09:39:59;6.07;;;5.47;;
635;SDS011;302;50.206;8.196;2023-12-20T09:42:28;6.13;;;5.37;;
635;SDS011;302;50.206;8.196;2023-12-20T09:44:54;6.18;;;4.55;;
635;SDS011;302;50.206;8.196;2023-12-20T09:47:20;6.83;;;4.43;;
635;SDS011;302;50.206;8.196;2023-12-20T09:49:47;6.75;;;6.15;;
635;SDS011;302;50.206;8.196;2023-12-20T09:52:13;6.53;;;5.27;;
635;SDS011;302;50.206;8.196;2023-12-20T09:54:39;5.80;;;4.30;;
635;SDS011;302;50.206;8.196;2023-12-20T09:57:04;5.53;;;4.77;;
635;SDS011;302;50.206;8.196;2023-12-20T09:59:29;5.63;;;3.53;;
635;SDS011;302;50.206;8.196;2023-12-20T10:01:55;5.95;;;4.07;;
635;SDS011;302;50.206;8.196;2023-12-20T10:04:20;6.82;;;5.85;;
635;SDS011;302;50.206;8.196;2023-12-20T10:06:46;5.93;;;3.30;;
635;SDS011;302;50.206;8.196;2023-12-20T10:09:11;5.15;;;2.95;;
635;SDS011;302;50.206;8.196;2023-12-20T10:11:37;3.97;;;3.10;;
635;SDS011;302;50.206;8.196;2023-12-20T10:14:03;4.47;;;3.50;;
635;SDS011;302;50.206;8.196;2023-12-20T10:16:28;4.90;;;3.40;;
635;SDS011;302;50.206;8.196;2023-12-20T10:18:54;7.70;;;2.70;;
635;SDS011;302;50.206;8.196;2023-12-20T10:21:19;3.50;;;3.00;;
635;SDS011;302;50.206;8.196;2023-12-20T10:23:45;7.13;;;2.70;;
635;SDS011;302;50.206;8.196;2023-12-20T10:26:21;4.50;;;2.83;;
635;SDS011;302;50.206;8.196;2023-12-20T10:28:46;5.88;;;2.90;;
635;SDS011;302;50.206;8.196;2023-12-20T10:31:27;7.18;;;3.50;;
635;SDS011;302;50.206;8.196;2023-12-20T10:33:53;6.10;;;2.75;;
635;SDS011;302;50.206;8.196;2023-12-20T10:36:18;5.10;;;2.80;;
635;SDS011;302;50.206;8.196;2023-12-20T10:38:43;5.18;;;3.55;;
635;SDS011;302;50.206;8.196;2023-12-20T10:41:09;5.28;;;2.83;;
635;SDS011;302;50.206;8.196;2023-12-20T10:43:34;4.17;;;3.23;;
635;SDS011;302;50.206;8.196;2023-12-20T10:46:01;7.10;;;4.13;;
635;SDS011;302;50.206;8.196;2023-12-20T10:48:28;3.40;;;3.10;;
635;SDS011;302;50.206;8.196;2023-12-20T10:50:55;3.97;;;3.20;;
635;SDS011;302;50.206;8.196;2023-12-20T10:53:20;6.10;;;2.77;;
635;SDS011;302;50.206;8.196;2023-12-20T10:55:46;5.13;;;2.50;;
635;SDS011;302;50.206;8.196;2023-12-20T10:58:12;5.07;;;2.95;;
635;SDS011;302;50.206;8.196;2023-12-20T11:00:39;9.53;;;5.60;;
635;SDS011;302;50.206;8.196;2023-12-20T11:03:05;4.60;;;3.58;;
635;SDS011;302;50.206;8.196;2023-12-20T11:05:46;5.97;;;4.90;;
635;SDS011;302;50.206;8.196;2023-12-20T11:08:16;7.70;;;3.15;;
635;SDS011;302;50.206;8.196;2023-12-20T11:10:53;9.68;;;4.82;;
635;SDS011;302;50.206;8.196;2023-12-20T11:13:20;7.28;;;4.90;;
635;SDS011;302;50.206;8.196;2023-12-20T11:15:47;5.95;;;4.35;;
635;SDS011;302;50.206;8.196;2023-12-20T11:18:13;5.93;;;2.90;;
635;SDS011;302;50.206;8.196;2023-12-20T11:20:41;7.67;;;4.90;;
635;SDS011;302;50.206;8.196;2023-12-20T11:23:07;5.72;;;2.83;;
635;SDS011;302;50.206;8.196;2023-12-20T11:25:46;4.57;;;2.35;;
635;SDS011;302;50.206;8.196;2023-12-20T11:28:11;7.70;;;2.78;;
635;SDS011;302;50.206;8.196;2023-12-20T11:30:46;4.50;;;2.20;;
635;SDS011;302;50.206;8.196;2023-12-20T11:33:13;3.45;;;2.15;;
635;SDS011;302;50.206;8.196;2023-12-20T11:35:38;3.75;;;2.40;;
635;SDS011;302;50.206;8.196;2023-12-20T11:38:04;5.75;;;2.97;;
635;SDS011;302;50.206;8.196;2023-12-20T11:40:30;3.80;;;2.47;;
635;SDS011;302;50.206;8.196;2023-12-20T11:42:58;5.15;;;2.92;;
635;SDS011;302;50.206;8.196;2023-12-20T11:45:24;5.83;;;2.30;;
635;SDS011;302;50.206;8.196;2023-12-20T11:47:50;5.90;;;3.20;;
635;SDS011;302;50.206;8.196;2023-12-20T11:50:15;4.10;;;2.20;;
635;SDS011;302;50.206;8.196;2023-12-20T11:52:41;5.07;;;2.17;;
635;SDS011;302;50.206;8.196;2023-12-20T11:55:06;2.20;;;1.73;;
635;SDS011;302;50.206;8.196;2023-12-20T11:57:31;6.57;;;2.40;;
635;SDS011;302;50.206;8.196;2023-12-20T11:59:57;3.10;;;2.00;;
635;SDS011;302;50.206;8.196;2023-12-20T12:02:22;3.70;;;2.43;;
635;SDS011;302;50.206;8.196;2023-12-20T12:04:48;6.32;;;2.67;;
635;SDS011;302;50.206;8.196;2023-12-20T12:07:14;4.43;;;1.93;;
635;SDS011;302;50.206;8.196;2023-12-20T12:09:39;5.37;;;2.60;;
635;SDS011;302;50.206;8.196;2023-12-20T12:12:04;3.73;;;2.03;;
635;SDS011;302;50.206;8.196;2023-12-20T12:14:30;4.50;;;2.50;;
635;SDS011;302;50.206;8.196;2023-12-20T12:16:55;4.00;;;1.97;;
635;SDS011;302;50.206;8.196;2023-12-20T12:19:21;3.33;;;2.00;;
635;SDS011;302;50.206;8.196;2023-12-20T12:21:46;4.53;;;1.83;;
635;SDS011;302;50.206;8.196;2023-12-20T12:24:11;5.83;;;2.53;;
635;SDS011;302;50.206;8.196;2023-12-20T12:26:37;4.27;;;3.10;;
635;SDS011;302;50.206;8.196;2023-12-20T12:29:02;3.60;;;1.93;;
635;SDS011;302;50.206;8.196;2023-12-20T12:31:28;2.57;;;1.60;;
635;SDS011;302;50.206;8.196;2023-12-20T12:33:53;6.70;;;2.47;;
635;SDS011;302;50.206;8.196;2023-12-20T12:36:18;4.23;;;2.23;;
635;SDS011;302;50.206;8.196;2023-12-20T12:38:44;5.70;;;2.20;;
635;SDS011;302;50.206;8.196;2023-12-20T12:41:09;6.23;;;2.53;;
635;SDS011;302;50.206;8.196;2023-12-20T12:43:35;3.28;;;2.17;;
635;SDS011;302;50.206;8.196;2023-12-20T12:46:00;3.20;;;2.00;;
635;SDS011;302;50.206;8.196;2023-12-20T12:48:26;3.70;;;2.07;;
635;SDS011;302;50.206;8.196;2023-12-20T12:50:53;5.80;;;3.00;;
635;SDS011;302;50.206;8.196;2023-12-20T12:53:19;5.22;;;2.35;;
635;SDS011;302;50.206;8.196;2023-12-20T12:55:44;3.93;;;2.27;;
635;SDS011;302;50.206;8.196;2023-12-20T12:58:09;6.93;;;2.70;;
635;SDS011;302;50.206;8.196;2023-12-20T13:00:34;4.57;;;3.80;;
635;SDS011;302;50.206;8.196;2023-12-20T13:03:00;3.40;;;2.70;;
635;SDS011;302;50.206;8.196;2023-12-20T13:05:25;5.07;;;2.83;;
635;SDS011;302;50.206;8.196;2023-12-20T13:07:50;4.33;;;2.37;;
635;SDS011;302;50.206;8.196;2023-12-20T13:10:15;4.73;;;2.57;;
635;SDS011;302;50.206;8.196;2023-12-20T13:12:43;3.05;;;2.75;;
635;SDS011;302;50.206;8.196;2023-12-20T13:15:09;4.77;;;2.93;;
635;SDS011;302;50.206;8.196;2023-12-20T13:17:34;6.97;;;3.47;;
635;SDS011;302;50.206;8.196;2023-12-20T13:19:59;5.30;;;3.00;;
635;SDS011;302;50.206;8.196;2023-12-20T13:22:24;4.17;;;2.87;;
635;SDS011;302;50.206;8.196;2023-12-20T13:24:50;4.93;;;4.10;;
635;SDS011;302;50.206;8.196;2023-12-20T13:27:15;9.90;;;7.30;;
635;SDS011;302;50.206;8.196;2023-12-20T13:29:40;11.63;;;8.90;;
635;SDS011;302;50.206;8.196;2023-12-20T13:32:06;7.05;;;5.07;;
635;SDS011;302;50.206;8.196;2023-12-20T13:34:31;11.17;;;8.27;;
635;SDS011;302;50.206;8.196;2023-12-20T13:36:56;10.40;;;6.88;;
635;SDS011;302;50.206;8.196;2023-12-20T13:39:21;8.20;;;5.57;;
635;SDS011;302;50.206;8.196;2023-12-20T13:41:47;11.00;;;6.47;;
635;SDS011;302;50.206;8.196;2023-12-20T13:44:13;10.50;;;6.90;;
635;SDS011;302;50.206;8.196;2023-12-20T13:46:38;15.43;;;10.23;;
635;SDS011;302;50.206;8.196;2023-12-20T13:49:04;8.03;;;5.73;;
635;SDS011;302;50.206;8.196;2023-12-20T13:51:30;9.02;;;5.40;;
635;SDS011;302;50.206;8.196;2023-12-20T13:53:55;8.13;;;6.13;;
635;SDS011;302;50.206;8.196;2023-12-20T13:56:20;5.53;;;4.60;;
635;SDS011;302;50.206;8.196;2023-12-20T13:58:47;10.60;;;7.90;;
635;SDS011;302;50.206;8.196;2023-12-20T14:01:12;4.40;;;4.00;;
635;SDS011;302;50.206;8.196;2023-12-20T14:03:37;8.93;;;4.37;;
635;SDS011;302;50.206;8.196;2023-12-20T14:06:02;6.20;;;4.40;;
635;SDS011;302;50.206;8.196;2023-12-20T14:08:28;5.63;;;3.00;;
635;SDS011;302;50.206;8.196;2023-12-20T14:10:53;4.60;;;2.90;;
635;SDS011;302;50.206;8.196;2023-12-20T14:13:19;4.20;;;2.63;;
635;SDS011;302;50.206;8.196;2023-12-20T14:15:44;5.80;;;2.90;;
635;SDS011;302;50.206;8.196;2023-12-20T14:18:09;3.53;;;2.25;;
635;SDS011;302;50.206;8.196;2023-12-20T14:20:35;5.20;;;3.87;;
635;SDS011;302;50.206;8.196;2023-12-20T14:23:01;2.73;;;2.10;;
635;SDS011;302;50.206;8.196;2023-12-20T14:25:26;4.90;;;3.40;;
635;SDS011;302;50.206;8.196;2023-12-20T14:27:51;5.05;;;3.10;;
635;SDS011;302;50.206;8.196;2023-12-20T14:30:17;6.90;;;2.60;;
635;SDS011;302;50.206;8.196;2023-12-20T14:32:42;5.30;;;3.70;;
635;SDS011;302;50.206;8.196;2023-12-20T14:35:07;4.03;;;2.70;;
635;SDS011;302;50.206;8.196;2023-12-20T14:37:33;5.13;;;4.10;;
635;SDS011;302;50.206;8.196;2023-12-20T14:39:58;9.90;;;6.00;;
635;SDS011;302;50.206;8.196;2023-12-20T14:42:23;5.13;;;4.20;;
635;SDS011;302;50.206;8.196;2023-12-20T14:44:48;6.37;;;4.80;;
635;SDS011;302;50.206;8.196;2023-12-20T14:47:14;7.90;;;5.83;;
635;SDS011;302;50.206;8.196;2023-12-20T14:49:40;6.25;;;3.13;;
635;SDS011;302;50.206;8.196;2023-12-20T14:52:05;6.97;;;2.50;;
635;SDS011;302;50.206;8.196;2023-12-20T14:54:31;5.03;;;4.60;;
635;SDS011;302;50.206;8.196;2023-12-20T14:56:57;5.73;;;3.70;;
635;SDS011;302;50.206;8.196;2023-12-20T14:59:22;6.95;;;2.63;;
635;SDS011;302;50.206;8.196;2023-12-20T15:01:47;3.70;;;2.38;;
635;SDS011;302;50.206;8.196;2023-12-20T15:04:12;3.60;;;2.07;;
635;SDS011;302;50.206;8.196;2023-12-20T15:06:38;6.03;;;2.60;;
635;SDS011;302;50.206;8.196;2023-12-20T15:09:03;4.50;;;2.80;;
635;SDS011;302;50.206;8.196;2023-12-20T15:11:30;4.60;;;4.18;;
635;SDS011;302;50.206;8.196;2023-12-20T15:13:55;6.10;;;4.40;;
635;SDS011;302;50.206;8.196;2023-12-20T15:16:24;6.80;;;3.73;;
635;SDS011;302;50.206;8.196;2023-12-20T15:18:49;6.07;;;3.70;;
635;SDS011;302;50.206;8.196;2023-12-20T15:21:15;2.90;;;2.35;;
635;SDS011;302;50.206;8.196;2023-12-20T15:23:41;4.70;;;3.00;;
635;SDS011;302;50.206;8.196;2023-12-20T15:26:17;5.13;;;2.78;;
635;SDS011;302;50.206;8.196;2023-12-20T15:28:42;3.83;;;2.00;;
635;SDS011;302;50.206;8.196;2023-12-20T15:31:08;3.20;;;2.40;;
635;SDS011;302;50.206;8.196;2023-12-20T15:33:33;5.03;;;2.97;;